sensor_id;sensor_type;location;lat;lon;timestamp;pressure;altitude;pressure_sealevel;temperature
76394;BMP180;65216;51.090;-115.352;2023-03-31T00:01:19;85601.40;;;23.70
76394;BMP180;65216;51.090;-115.352;2023-03-31T00:03:46;85594.00;;;23.70
76394;BMP180;65216;51.090;-115.352;2023-03-31T00:06:14;85607.80;;;23.70
76394;BMP180;65216;51.090;-115.352;2023-03-31T00:08:46;85602.20;;;23.70
76394;BMP180;65216;51.090;-115.352;2023-03-31T00:11:16;85592.80;;;23.70
76394;BMP180;65216;51.090;-115.352;2023-03-31T00:13:45;85610.40;;;23.70
76394;BMP180;65216;51.090;-115.352;2023-03-31T00:16:12;85590.60;;;23.70
76394;BMP180;65216;51.090;-115.352;2023-03-31T00:18:40;85579.40;;;23.70
76394;BMP180;65216;51.090;-115.352;2023-03-31T00:21:16;85594.80;;;23.74
76394;BMP180;65216;51.090;-115.352;2023-03-31T00:23:55;85589.20;;;23.78
76394;BMP180;65216;51.090;-115.352;2023-03-31T00:26:24;85578.60;;;23.74
76394;BMP180;65216;51.090;-115.352;2023-03-31T00:28:55;85592.20;;;23.80
76394;BMP180;65216;51.090;-115.352;2023-03-31T00:31:24;85588.20;;;23.80
76394;BMP180;65216;51.090;-115.352;2023-03-31T00:33:53;85587.60;;;23.80
76394;BMP180;65216;51.090;-115.352;2023-03-31T00:36:21;85591.00;;;23.80
76394;BMP180;65216;51.090;-115.352;2023-03-31T00:39:08;85585.80;;;23.80
76394;BMP180;65216;51.090;-115.352;2023-03-31T00:41:38;85598.00;;;23.80
76394;BMP180;65216;51.090;-115.352;2023-03-31T00:44:21;85598.00;;;23.70
76394;BMP180;65216;51.090;-115.352;2023-03-31T00:47:11;85576.60;;;23.70
76394;BMP180;65216;51.090;-115.352;2023-03-31T00:49:48;85585.40;;;23.70
76394;BMP180;65216;51.090;-115.352;2023-03-31T00:54:54;85576.20;;;23.60
76394;BMP180;65216;51.090;-115.352;2023-03-31T00:57:25;85582.80;;;23.60
76394;BMP180;65216;51.090;-115.352;2023-03-31T01:00:03;85585.80;;;23.60
76394;BMP180;65216;51.090;-115.352;2023-03-31T01:02:44;85591.80;;;23.50
76394;BMP180;65216;51.090;-115.352;2023-03-31T01:05:26;85591.00;;;23.50
76394;BMP180;65216;51.090;-115.352;2023-03-31T01:07:54;85594.20;;;23.48
76394;BMP180;65216;51.090;-115.352;2023-03-31T01:10:22;85596.80;;;23.40
76394;BMP180;65216;51.090;-115.352;2023-03-31T01:12:53;85590.00;;;23.40
76394;BMP180;65216;51.090;-115.352;2023-03-31T01:15:24;85611.40;;;23.40
76394;BMP180;65216;51.090;-115.352;2023-03-31T01:17:53;85600.80;;;23.36
76394;BMP180;65216;51.090;-115.352;2023-03-31T01:21:00;85611.40;;;23.30
76394;BMP180;65216;51.090;-115.352;2023-03-31T01:38:20;85621.40;;;23.00
76394;BMP180;65216;51.090;-115.352;2023-03-31T01:41:05;85618.20;;;23.00
76394;BMP180;65216;51.090;-115.352;2023-03-31T01:44:36;85615.20;;;23.00
76394;BMP180;65216;51.090;-115.352;2023-03-31T01:47:11;85613.20;;;22.90
76394;BMP180;65216;51.090;-115.352;2023-03-31T01:57:52;85623.60;;;22.80
76394;BMP180;65216;51.090;-115.352;2023-03-31T02:00:33;85628.80;;;22.78
76394;BMP180;65216;51.090;-115.352;2023-03-31T02:03:10;85616.40;;;22.70
76394;BMP180;65216;51.090;-115.352;2023-03-31T02:06:01;85613.20;;;22.70
76394;BMP180;65216;51.090;-115.352;2023-03-31T02:08:54;85620.00;;;22.70
76394;BMP180;65216;51.090;-115.352;2023-03-31T02:11:24;85627.60;;;22.60
76394;BMP180;65216;51.090;-115.352;2023-03-31T02:13:55;85632.60;;;22.60
76394;BMP180;65216;51.090;-115.352;2023-03-31T02:16:35;85632.00;;;22.60
76394;BMP180;65216;51.090;-115.352;2023-03-31T02:19:09;85629.40;;;22.60
76394;BMP180;65216;51.090;-115.352;2023-03-31T02:21:40;85635.60;;;22.60
76394;BMP180;65216;51.090;-115.352;2023-03-31T02:24:11;85644.00;;;22.50
76394;BMP180;65216;51.090;-115.352;2023-03-31T02:26:53;85646.20;;;22.50
76394;BMP180;65216;51.090;-115.352;2023-03-31T02:29:25;85645.80;;;22.50
76394;BMP180;65216;51.090;-115.352;2023-03-31T02:34:38;85651.20;;;22.50
76394;BMP180;65216;51.090;-115.352;2023-03-31T02:37:05;85654.20;;;22.40
76394;BMP180;65216;51.090;-115.352;2023-03-31T02:39:35;85653.40;;;22.40
76394;BMP180;65216;51.090;-115.352;2023-03-31T02:42:05;85659.60;;;22.40
76394;BMP180;65216;51.090;-115.352;2023-03-31T02:44:37;85661.20;;;22.40
76394;BMP180;65216;51.090;-115.352;2023-03-31T02:47:12;85675.00;;;22.40
76394;BMP180;65216;51.090;-115.352;2023-03-31T02:49:45;85675.20;;;22.40
76394;BMP180;65216;51.090;-115.352;2023-03-31T02:53:08;85675.00;;;22.30
76394;BMP180;65216;51.090;-115.352;2023-03-31T02:58:53;85687.40;;;22.30
76394;BMP180;65216;51.090;-115.352;2023-03-31T03:02:01;85689.40;;;22.30
76394;BMP180;65216;51.090;-115.352;2023-03-31T03:07:27;85687.00;;;22.24
76394;BMP180;65216;51.090;-115.352;2023-03-31T03:10:34;85681.00;;;22.20
76394;BMP180;65216;51.090;-115.352;2023-03-31T03:16:04;85704.80;;;22.20
76394;BMP180;65216;51.090;-115.352;2023-03-31T03:18:33;85693.20;;;22.20
76394;BMP180;65216;51.090;-115.352;2023-03-31T03:21:01;85730.20;;;22.20
76394;BMP180;65216;51.090;-115.352;2023-03-31T03:23:28;85701.40;;;22.16
76394;BMP180;65216;51.090;-115.352;2023-03-31T03:25:59;85711.80;;;22.10
76394;BMP180;65216;51.090;-115.352;2023-03-31T03:28:26;85718.40;;;22.10
76394;BMP180;65216;51.090;-115.352;2023-03-31T03:30:53;85728.20;;;22.10
76394;BMP180;65216;51.090;-115.352;2023-03-31T03:33:21;85726.80;;;22.10
76394;BMP180;65216;51.090;-115.352;2023-03-31T03:35:50;85722.00;;;22.10
76394;BMP180;65216;51.090;-115.352;2023-03-31T03:38:20;85730.60;;;22.10
76394;BMP180;65216;51.090;-115.352;2023-03-31T03:40:52;85738.40;;;22.10
76394;BMP180;65216;51.090;-115.352;2023-03-31T03:43:20;85743.40;;;22.02
76394;BMP180;65216;51.090;-115.352;2023-03-31T03:45:49;85748.40;;;22.00
76394;BMP180;65216;51.090;-115.352;2023-03-31T03:48:18;85747.00;;;22.00
76394;BMP180;65216;51.090;-115.352;2023-03-31T03:50:46;85749.40;;;22.00
76394;BMP180;65216;51.090;-115.352;2023-03-31T03:53:14;85762.60;;;22.00
76394;BMP180;65216;51.090;-115.352;2023-03-31T03:55:41;85761.20;;;21.98
76394;BMP180;65216;51.090;-115.352;2023-03-31T03:58:10;85752.60;;;21.92
76394;BMP180;65216;51.090;-115.352;2023-03-31T04:00:40;85764.80;;;21.90
76394;BMP180;65216;51.090;-115.352;2023-03-31T04:03:11;85764.40;;;21.90
76394;BMP180;65216;51.090;-115.352;2023-03-31T04:05:39;85766.40;;;21.90
76394;BMP180;65216;51.090;-115.352;2023-03-31T04:08:06;85761.40;;;21.90
76394;BMP180;65216;51.090;-115.352;2023-03-31T04:10:37;85769.00;;;21.90
76394;BMP180;65216;51.090;-115.352;2023-03-31T04:13:09;85768.20;;;21.80
76394;BMP180;65216;51.090;-115.352;2023-03-31T04:15:36;85769.40;;;21.80
76394;BMP180;65216;51.090;-115.352;2023-03-31T04:18:07;85770.40;;;21.80
76394;BMP180;65216;51.090;-115.352;2023-03-31T04:20:41;85775.20;;;21.80
76394;BMP180;65216;51.090;-115.352;2023-03-31T04:23:10;85773.40;;;21.80
76394;BMP180;65216;51.090;-115.352;2023-03-31T04:25:41;85772.80;;;21.80
76394;BMP180;65216;51.090;-115.352;2023-03-31T04:28:11;85777.80;;;21.70
76394;BMP180;65216;51.090;-115.352;2023-03-31T04:30:40;85783.20;;;21.70
76394;BMP180;65216;51.090;-115.352;2023-03-31T04:33:07;85782.00;;;21.70
76394;BMP180;65216;51.090;-115.352;2023-03-31T04:35:34;85783.40;;;21.70
76394;BMP180;65216;51.090;-115.352;2023-03-31T04:38:23;85791.60;;;21.70
76394;BMP180;65216;51.090;-115.352;2023-03-31T04:40:53;85789.40;;;21.70
76394;BMP180;65216;51.090;-115.352;2023-03-31T04:43:21;85782.00;;;21.70
76394;BMP180;65216;51.090;-115.352;2023-03-31T04:45:49;85786.20;;;21.60
76394;BMP180;65216;51.090;-115.352;2023-03-31T04:48:16;85789.80;;;21.60
76394;BMP180;65216;51.090;-115.352;2023-03-31T04:50:45;85792.60;;;21.60
76394;BMP180;65216;51.090;-115.352;2023-03-31T04:53:13;85792.20;;;21.60
76394;BMP180;65216;51.090;-115.352;2023-03-31T04:55:43;85795.20;;;21.60
76394;BMP180;65216;51.090;-115.352;2023-03-31T04:58:10;85793.40;;;21.58
76394;BMP180;65216;51.090;-115.352;2023-03-31T05:00:37;85795.40;;;21.56
76394;BMP180;65216;51.090;-115.352;2023-03-31T05:03:04;85801.00;;;21.50
76394;BMP180;65216;51.090;-115.352;2023-03-31T05:05:32;85792.00;;;21.50
76394;BMP180;65216;51.090;-115.352;2023-03-31T05:08:03;85797.60;;;21.50
76394;BMP180;65216;51.090;-115.352;2023-03-31T05:10:31;85795.00;;;21.50
76394;BMP180;65216;51.090;-115.352;2023-03-31T05:12:58;85798.00;;;21.50
76394;BMP180;65216;51.090;-115.352;2023-03-31T05:15:27;85801.80;;;21.50
76394;BMP180;65216;51.090;-115.352;2023-03-31T05:17:56;85807.00;;;21.50
76394;BMP180;65216;51.090;-115.352;2023-03-31T05:20:24;85808.20;;;21.50
76394;BMP180;65216;51.090;-115.352;2023-03-31T05:22:51;85804.00;;;21.50
76394;BMP180;65216;51.090;-115.352;2023-03-31T05:25:18;85807.40;;;21.46
76394;BMP180;65216;51.090;-115.352;2023-03-31T05:27:47;85812.20;;;21.40
76394;BMP180;65216;51.090;-115.352;2023-03-31T05:30:17;85812.80;;;21.40
76394;BMP180;65216;51.090;-115.352;2023-03-31T05:32:44;85814.00;;;21.40
76394;BMP180;65216;51.090;-115.352;2023-03-31T05:35:11;85815.60;;;21.40
76394;BMP180;65216;51.090;-115.352;2023-03-31T05:37:38;85816.80;;;21.40
76394;BMP180;65216;51.090;-115.352;2023-03-31T05:40:10;85817.80;;;21.40
76394;BMP180;65216;51.090;-115.352;2023-03-31T05:42:38;85815.60;;;21.40
76394;BMP180;65216;51.090;-115.352;2023-03-31T05:45:06;85814.00;;;21.40
76394;BMP180;65216;51.090;-115.352;2023-03-31T05:47:35;85819.40;;;21.36
76394;BMP180;65216;51.090;-115.352;2023-03-31T05:50:03;85816.40;;;21.30
76394;BMP180;65216;51.090;-115.352;2023-03-31T05:52:33;85814.80;;;21.30
76394;BMP180;65216;51.090;-115.352;2023-03-31T05:55:01;85820.40;;;21.30
76394;BMP180;65216;51.090;-115.352;2023-03-31T05:57:31;85819.00;;;21.30
76394;BMP180;65216;51.090;-115.352;2023-03-31T05:59:58;85820.80;;;21.30
76394;BMP180;65216;51.090;-115.352;2023-03-31T06:02:25;85825.60;;;21.30
76394;BMP180;65216;51.090;-115.352;2023-03-31T06:04:52;85819.80;;;21.30
76394;BMP180;65216;51.090;-115.352;2023-03-31T06:07:20;85818.60;;;21.30
76394;BMP180;65216;51.090;-115.352;2023-03-31T06:09:50;85818.00;;;21.30
76394;BMP180;65216;51.090;-115.352;2023-03-31T06:12:17;85823.80;;;21.24
76394;BMP180;65216;51.090;-115.352;2023-03-31T06:14:44;85822.00;;;21.20
76394;BMP180;65216;51.090;-115.352;2023-03-31T06:17:14;85821.40;;;21.20
76394;BMP180;65216;51.090;-115.352;2023-03-31T06:19:43;85813.00;;;21.20
76394;BMP180;65216;51.090;-115.352;2023-03-31T06:22:10;85818.40;;;21.20
76394;BMP180;65216;51.090;-115.352;2023-03-31T06:24:38;85815.60;;;21.20
76394;BMP180;65216;51.090;-115.352;2023-03-31T06:27:07;85818.40;;;21.20
76394;BMP180;65216;51.090;-115.352;2023-03-31T06:29:34;85824.00;;;21.20
76394;BMP180;65216;51.090;-115.352;2023-03-31T06:32:01;85819.60;;;21.20
76394;BMP180;65216;51.090;-115.352;2023-03-31T06:34:31;85818.80;;;21.20
76394;BMP180;65216;51.090;-115.352;2023-03-31T06:36:58;85822.40;;;21.20
76394;BMP180;65216;51.090;-115.352;2023-03-31T06:39:25;85822.60;;;21.18
76394;BMP180;65216;51.090;-115.352;2023-03-31T06:41:53;85808.20;;;21.10
76394;BMP180;65216;51.090;-115.352;2023-03-31T06:44:20;85818.60;;;21.10
76394;BMP180;65216;51.090;-115.352;2023-03-31T06:46:50;85825.80;;;21.10
76394;BMP180;65216;51.090;-115.352;2023-03-31T06:49:20;85811.60;;;21.10
76394;BMP180;65216;51.090;-115.352;2023-03-31T06:51:47;85816.00;;;21.10
76394;BMP180;65216;51.090;-115.352;2023-03-31T06:54:17;85812.80;;;21.10
76394;BMP180;65216;51.090;-115.352;2023-03-31T06:56:47;85820.40;;;21.10
76394;BMP180;65216;51.090;-115.352;2023-03-31T06:59:15;85815.40;;;21.10
76394;BMP180;65216;51.090;-115.352;2023-03-31T07:01:42;85820.80;;;21.10
76394;BMP180;65216;51.090;-115.352;2023-03-31T07:04:11;85825.00;;;21.10
76394;BMP180;65216;51.090;-115.352;2023-03-31T07:06:38;85820.40;;;21.10
76394;BMP180;65216;51.090;-115.352;2023-03-31T07:09:05;85827.00;;;21.10
76394;BMP180;65216;51.090;-115.352;2023-03-31T07:11:33;85827.00;;;21.10
76394;BMP180;65216;51.090;-115.352;2023-03-31T07:14:00;85815.20;;;21.10
76394;BMP180;65216;51.090;-115.352;2023-03-31T07:16:27;85820.00;;;21.12
76394;BMP180;65216;51.090;-115.352;2023-03-31T07:18:54;85823.00;;;21.14
76394;BMP180;65216;51.090;-115.352;2023-03-31T07:21:25;85825.00;;;21.20
76394;BMP180;65216;51.090;-115.352;2023-03-31T07:23:52;85825.80;;;21.18
76394;BMP180;65216;51.090;-115.352;2023-03-31T07:26:19;85829.40;;;21.20
76394;BMP180;65216;51.090;-115.352;2023-03-31T07:28:47;85828.20;;;21.20
76394;BMP180;65216;51.090;-115.352;2023-03-31T07:31:15;85830.60;;;21.20
76394;BMP180;65216;51.090;-115.352;2023-03-31T07:33:42;85833.00;;;21.20
76394;BMP180;65216;51.090;-115.352;2023-03-31T07:36:10;85833.60;;;21.20
76394;BMP180;65216;51.090;-115.352;2023-03-31T07:38:39;85834.00;;;21.20
76394;BMP180;65216;51.090;-115.352;2023-03-31T07:41:11;85835.60;;;21.20
76394;BMP180;65216;51.090;-115.352;2023-03-31T07:43:40;85830.20;;;21.20
76394;BMP180;65216;51.090;-115.352;2023-03-31T07:46:15;85826.80;;;21.20
76394;BMP180;65216;51.090;-115.352;2023-03-31T07:48:43;85831.20;;;21.20
76394;BMP180;65216;51.090;-115.352;2023-03-31T07:51:14;85829.80;;;21.20
76394;BMP180;65216;51.090;-115.352;2023-03-31T07:53:42;85834.40;;;21.20
76394;BMP180;65216;51.090;-115.352;2023-03-31T07:56:09;85832.80;;;21.20
76394;BMP180;65216;51.090;-115.352;2023-03-31T07:58:36;85828.00;;;21.20
76394;BMP180;65216;51.090;-115.352;2023-03-31T08:01:04;85834.60;;;21.18
76394;BMP180;65216;51.090;-115.352;2023-03-31T08:03:31;85837.60;;;21.18
76394;BMP180;65216;51.090;-115.352;2023-03-31T08:06:00;85835.40;;;21.14
76394;BMP180;65216;51.090;-115.352;2023-03-31T08:08:28;85836.60;;;21.12
76394;BMP180;65216;51.090;-115.352;2023-03-31T08:10:55;85829.20;;;21.14
76394;BMP180;65216;51.090;-115.352;2023-03-31T08:13:25;85836.60;;;21.14
76394;BMP180;65216;51.090;-115.352;2023-03-31T08:15:52;85837.00;;;21.12
76394;BMP180;65216;51.090;-115.352;2023-03-31T08:18:19;85836.40;;;21.10
76394;BMP180;65216;51.090;-115.352;2023-03-31T08:20:46;85829.00;;;21.10
76394;BMP180;65216;51.090;-115.352;2023-03-31T08:23:16;85831.60;;;21.10
76394;BMP180;65216;51.090;-115.352;2023-03-31T08:25:43;85837.00;;;21.10
76394;BMP180;65216;51.090;-115.352;2023-03-31T08:28:10;85837.20;;;21.10
76394;BMP180;65216;51.090;-115.352;2023-03-31T08:30:42;85839.40;;;21.10
76394;BMP180;65216;51.090;-115.352;2023-03-31T08:33:10;85835.60;;;21.10
76394;BMP180;65216;51.090;-115.352;2023-03-31T08:35:39;85836.40;;;21.10
76394;BMP180;65216;51.090;-115.352;2023-03-31T08:38:09;85848.00;;;21.10
76394;BMP180;65216;51.090;-115.352;2023-03-31T08:40:42;85841.40;;;21.10
76394;BMP180;65216;51.090;-115.352;2023-03-31T08:43:23;85842.40;;;21.10
76394;BMP180;65216;51.090;-115.352;2023-03-31T08:45:53;85837.00;;;21.10
76394;BMP180;65216;51.090;-115.352;2023-03-31T08:48:39;85837.00;;;21.10
76394;BMP180;65216;51.090;-115.352;2023-03-31T08:51:43;85841.40;;;21.10
76394;BMP180;65216;51.090;-115.352;2023-03-31T08:54:32;85841.80;;;21.10
76394;BMP180;65216;51.090;-115.352;2023-03-31T08:57:01;85844.00;;;21.10
76394;BMP180;65216;51.090;-115.352;2023-03-31T08:59:36;85835.80;;;21.10
76394;BMP180;65216;51.090;-115.352;2023-03-31T09:05:43;85846.20;;;21.10
76394;BMP180;65216;51.090;-115.352;2023-03-31T09:08:37;85845.80;;;21.06
76394;BMP180;65216;51.090;-115.352;2023-03-31T09:19:39;85849.40;;;20.92
76394;BMP180;65216;51.090;-115.352;2023-03-31T09:22:19;85850.20;;;20.90
76394;BMP180;65216;51.090;-115.352;2023-03-31T09:27:29;85850.40;;;20.90
76394;BMP180;65216;51.090;-115.352;2023-03-31T09:30:19;85854.60;;;20.90
76394;BMP180;65216;51.090;-115.352;2023-03-31T09:32:52;85849.80;;;20.88
76394;BMP180;65216;51.090;-115.352;2023-03-31T09:35:24;85854.00;;;20.80
76394;BMP180;65216;51.090;-115.352;2023-03-31T09:37:52;85859.40;;;20.80
76394;BMP180;65216;51.090;-115.352;2023-03-31T09:40:23;85856.20;;;20.80
76394;BMP180;65216;51.090;-115.352;2023-03-31T09:43:00;85851.40;;;20.80
76394;BMP180;65216;51.090;-115.352;2023-03-31T09:45:29;85855.40;;;20.80
76394;BMP180;65216;51.090;-115.352;2023-03-31T09:48:09;85853.00;;;20.80
76394;BMP180;65216;51.090;-115.352;2023-03-31T09:51:00;85853.20;;;20.74
76394;BMP180;65216;51.090;-115.352;2023-03-31T09:53:45;85855.80;;;20.70
76394;BMP180;65216;51.090;-115.352;2023-03-31T09:56:44;85852.80;;;20.70
76394;BMP180;65216;51.090;-115.352;2023-03-31T09:59:22;85851.20;;;20.70
76394;BMP180;65216;51.090;-115.352;2023-03-31T10:01:52;85857.40;;;20.70
76394;BMP180;65216;51.090;-115.352;2023-03-31T10:04:33;85855.60;;;20.70
76394;BMP180;65216;51.090;-115.352;2023-03-31T10:07:04;85857.80;;;20.70
76394;BMP180;65216;51.090;-115.352;2023-03-31T10:09:33;85850.20;;;20.64
76394;BMP180;65216;51.090;-115.352;2023-03-31T10:12:19;85856.40;;;20.60
76394;BMP180;65216;51.090;-115.352;2023-03-31T10:15:10;85853.80;;;20.60
76394;BMP180;65216;51.090;-115.352;2023-03-31T10:17:43;85855.60;;;20.60
76394;BMP180;65216;51.090;-115.352;2023-03-31T10:22:54;85862.00;;;20.60
76394;BMP180;65216;51.090;-115.352;2023-03-31T10:25:27;85856.80;;;20.60
76394;BMP180;65216;51.090;-115.352;2023-03-31T10:28:01;85860.00;;;20.60
76394;BMP180;65216;51.090;-115.352;2023-03-31T10:30:36;85869.00;;;20.60
76394;BMP180;65216;51.090;-115.352;2023-03-31T10:33:10;85866.80;;;20.60
76394;BMP180;65216;51.090;-115.352;2023-03-31T10:35:40;85863.00;;;20.58
76394;BMP180;65216;51.090;-115.352;2023-03-31T10:38:13;85867.00;;;20.50
76394;BMP180;65216;51.090;-115.352;2023-03-31T10:40:57;85871.40;;;20.50
76394;BMP180;65216;51.090;-115.352;2023-03-31T10:43:41;85867.20;;;20.50
76394;BMP180;65216;51.090;-115.352;2023-03-31T10:46:08;85868.00;;;20.50
76394;BMP180;65216;51.090;-115.352;2023-03-31T10:48:41;85875.60;;;20.50
76394;BMP180;65216;51.090;-115.352;2023-03-31T10:53:51;85872.00;;;20.50
76394;BMP180;65216;51.090;-115.352;2023-03-31T11:10:59;85875.60;;;20.40
76394;BMP180;65216;51.090;-115.352;2023-03-31T11:14:07;85869.20;;;20.40
76394;BMP180;65216;51.090;-115.352;2023-03-31T11:19:37;85882.80;;;20.40
76394;BMP180;65216;51.090;-115.352;2023-03-31T11:22:33;85882.00;;;20.40
76394;BMP180;65216;51.090;-115.352;2023-03-31T11:25:20;85884.40;;;20.40
76394;BMP180;65216;51.090;-115.352;2023-03-31T11:39:39;85882.80;;;20.40
76394;BMP180;65216;51.090;-115.352;2023-03-31T11:42:36;85885.40;;;20.40
76394;BMP180;65216;51.090;-115.352;2023-03-31T11:45:20;85898.20;;;20.40
76394;BMP180;65216;51.090;-115.352;2023-03-31T11:47:54;85893.80;;;20.40
76394;BMP180;65216;51.090;-115.352;2023-03-31T11:50:29;85887.20;;;20.40
76394;BMP180;65216;51.090;-115.352;2023-03-31T11:53:18;85891.20;;;20.40
76394;BMP180;65216;51.090;-115.352;2023-03-31T11:55:50;85891.00;;;20.40
76394;BMP180;65216;51.090;-115.352;2023-03-31T11:58:52;85885.40;;;20.40
76394;BMP180;65216;51.090;-115.352;2023-03-31T12:04:38;85890.60;;;20.40
76394;BMP180;65216;51.090;-115.352;2023-03-31T12:07:30;85891.00;;;20.40
76394;BMP180;65216;51.090;-115.352;2023-03-31T12:10:20;85897.00;;;20.40
76394;BMP180;65216;51.090;-115.352;2023-03-31T12:15:57;85893.20;;;20.40
76394;BMP180;65216;51.090;-115.352;2023-03-31T12:18:33;85893.60;;;20.40
76394;BMP180;65216;51.090;-115.352;2023-03-31T12:21:04;85901.60;;;20.40
76394;BMP180;65216;51.090;-115.352;2023-03-31T12:23:45;85897.00;;;20.40
76394;BMP180;65216;51.090;-115.352;2023-03-31T12:29:28;85900.60;;;20.40
76394;BMP180;65216;51.090;-115.352;2023-03-31T12:32:02;85893.20;;;20.40
76394;BMP180;65216;51.090;-115.352;2023-03-31T12:34:53;85900.80;;;20.40
76394;BMP180;65216;51.090;-115.352;2023-03-31T12:38:06;85900.00;;;20.40
76394;BMP180;65216;51.090;-115.352;2023-03-31T12:55:54;85906.80;;;20.40
76394;BMP180;65216;51.090;-115.352;2023-03-31T13:04:06;85914.80;;;20.40
76394;BMP180;65216;51.090;-115.352;2023-03-31T13:12:14;85909.40;;;20.40
76394;BMP180;65216;51.090;-115.352;2023-03-31T13:14:46;85915.40;;;20.40
76394;BMP180;65216;51.090;-115.352;2023-03-31T13:17:35;85919.00;;;20.36
76394;BMP180;65216;51.090;-115.352;2023-03-31T13:20:40;85923.80;;;20.40
76394;BMP180;65216;51.090;-115.352;2023-03-31T13:23:22;85922.80;;;20.36
76394;BMP180;65216;51.090;-115.352;2023-03-31T13:25:58;85925.60;;;20.36
76394;BMP180;65216;51.090;-115.352;2023-03-31T13:28:42;85935.80;;;20.40
76394;BMP180;65216;51.090;-115.352;2023-03-31T13:31:12;85925.20;;;20.36
76394;BMP180;65216;51.090;-115.352;2023-03-31T13:33:53;85925.00;;;20.36
76394;BMP180;65216;51.090;-115.352;2023-03-31T13:39:26;85918.00;;;20.30
76394;BMP180;65216;51.090;-115.352;2023-03-31T13:46:01;85919.80;;;20.30
76394;BMP180;65216;51.090;-115.352;2023-03-31T13:51:42;85929.80;;;20.30
76394;BMP180;65216;51.090;-115.352;2023-03-31T14:00:33;85926.40;;;20.30
76394;BMP180;65216;51.090;-115.352;2023-03-31T14:03:28;85920.80;;;20.30
76394;BMP180;65216;51.090;-115.352;2023-03-31T14:07:05;85926.40;;;20.30
76394;BMP180;65216;51.090;-115.352;2023-03-31T14:09:26;85918.40;;;20.30
76394;BMP180;65216;51.090;-115.352;2023-03-31T14:11:55;85921.60;;;20.30
76394;BMP180;65216;51.090;-115.352;2023-03-31T14:14:25;85925.40;;;20.30
76394;BMP180;65216;51.090;-115.352;2023-03-31T14:17:00;85930.00;;;20.30
76394;BMP180;65216;51.090;-115.352;2023-03-31T14:38:18;85935.20;;;20.30
76394;BMP180;65216;51.090;-115.352;2023-03-31T14:40:52;85922.40;;;20.30
76394;BMP180;65216;51.090;-115.352;2023-03-31T14:43:26;85929.60;;;20.34
76394;BMP180;65216;51.090;-115.352;2023-03-31T14:46:00;85933.40;;;20.40
76394;BMP180;65216;51.090;-115.352;2023-03-31T14:48:31;85928.00;;;20.40
76394;BMP180;65216;51.090;-115.352;2023-03-31T14:51:02;85932.20;;;20.36
76394;BMP180;65216;51.090;-115.352;2023-03-31T14:53:29;85943.00;;;20.34
76394;BMP180;65216;51.090;-115.352;2023-03-31T14:56:15;85932.40;;;20.30
76394;BMP180;65216;51.090;-115.352;2023-03-31T14:58:52;85926.60;;;20.30
76394;BMP180;65216;51.090;-115.352;2023-03-31T15:01:29;85926.80;;;20.36
76394;BMP180;65216;51.090;-115.352;2023-03-31T15:04:12;85922.40;;;20.40
76394;BMP180;65216;51.090;-115.352;2023-03-31T15:06:44;85933.80;;;20.40
76394;BMP180;65216;51.090;-115.352;2023-03-31T15:09:27;85933.20;;;20.40
76394;BMP180;65216;51.090;-115.352;2023-03-31T15:12:22;85934.00;;;20.40
76394;BMP180;65216;51.090;-115.352;2023-03-31T15:14:56;85914.60;;;20.40
76394;BMP180;65216;51.090;-115.352;2023-03-31T15:17:29;85916.20;;;20.40
76394;BMP180;65216;51.090;-115.352;2023-03-31T15:20:20;85919.80;;;20.40
76394;BMP180;65216;51.090;-115.352;2023-03-31T15:22:55;85937.80;;;20.40
76394;BMP180;65216;51.090;-115.352;2023-03-31T15:25:32;85936.00;;;20.40
76394;BMP180;65216;51.090;-115.352;2023-03-31T15:28:06;85924.00;;;20.40
76394;BMP180;65216;51.090;-115.352;2023-03-31T15:30:34;85922.80;;;20.44
76394;BMP180;65216;51.090;-115.352;2023-03-31T15:33:01;85925.40;;;20.46
76394;BMP180;65216;51.090;-115.352;2023-03-31T15:35:34;85922.00;;;20.50
76394;BMP180;65216;51.090;-115.352;2023-03-31T15:38:06;85920.80;;;20.50
76394;BMP180;65216;51.090;-115.352;2023-03-31T15:40:40;85924.00;;;20.50
76394;BMP180;65216;51.090;-115.352;2023-03-31T15:43:47;85922.20;;;20.50
76394;BMP180;65216;51.090;-115.352;2023-03-31T15:46:47;85926.00;;;20.50
76394;BMP180;65216;51.090;-115.352;2023-03-31T15:49:24;85921.00;;;20.50
76394;BMP180;65216;51.090;-115.352;2023-03-31T15:51:55;85919.60;;;20.50
76394;BMP180;65216;51.090;-115.352;2023-03-31T15:54:41;85917.20;;;20.50
76394;BMP180;65216;51.090;-115.352;2023-03-31T15:57:15;85907.60;;;20.54
76394;BMP180;65216;51.090;-115.352;2023-03-31T15:59:49;85905.00;;;20.60
76394;BMP180;65216;51.090;-115.352;2023-03-31T16:02:22;85914.20;;;20.60
76394;BMP180;65216;51.090;-115.352;2023-03-31T16:04:58;85904.60;;;20.60
76394;BMP180;65216;51.090;-115.352;2023-03-31T16:07:33;85904.60;;;20.60
76394;BMP180;65216;51.090;-115.352;2023-03-31T16:10:20;85900.00;;;20.60
76394;BMP180;65216;51.090;-115.352;2023-03-31T16:13:00;85904.20;;;20.60
76394;BMP180;65216;51.090;-115.352;2023-03-31T16:15:55;85897.00;;;20.60
76394;BMP180;65216;51.090;-115.352;2023-03-31T16:18:39;85910.60;;;20.60
76394;BMP180;65216;51.090;-115.352;2023-03-31T16:21:11;85904.80;;;20.60
76394;BMP180;65216;51.090;-115.352;2023-03-31T16:23:40;85901.00;;;20.60
76394;BMP180;65216;51.090;-115.352;2023-03-31T16:26:10;85879.60;;;20.60
76394;BMP180;65216;51.090;-115.352;2023-03-31T16:28:40;85874.80;;;20.60
76394;BMP180;65216;51.090;-115.352;2023-03-31T16:31:39;85885.40;;;20.66
76394;BMP180;65216;51.090;-115.352;2023-03-31T16:34:11;85886.80;;;20.70
76394;BMP180;65216;51.090;-115.352;2023-03-31T16:36:38;85899.80;;;20.70
76394;BMP180;65216;51.090;-115.352;2023-03-31T16:39:09;85876.40;;;20.70
76394;BMP180;65216;51.090;-115.352;2023-03-31T16:41:37;85877.80;;;20.70
76394;BMP180;65216;51.090;-115.352;2023-03-31T16:44:05;85876.80;;;20.70
76394;BMP180;65216;51.090;-115.352;2023-03-31T16:46:32;85880.60;;;20.76
76394;BMP180;65216;51.090;-115.352;2023-03-31T16:49:05;85866.40;;;20.80